Time;durP1;ratioP1;P1;durP2;ratioP2;P2;SDS_P1;SDS_P2;PMS_P1;PMS_P2;Temp;Humidity;BMP_temperature;BMP_pressure;BME280_temperature;BME280_humidity;BME280_pressure;Samples;Min_cycle;Max_cycle;Signal;HPM_P1;HPM_P2
2021/07/22 00:02:08;;;;;;;65.22;61.72;;;22.30;66.90;;;;;;5030200;28;20388;-77
2021/07/22 00:04:33;;;;;;;66.15;62.30;;;22.20;66.90;;;;;;5028814;28;20034;-77
2021/07/22 00:06:59;;;;;;;68.30;64.80;;;22.20;67.00;;;;;;5062028;28;20041;-76
2021/07/22 00:09:25;;;;;;;57.88;54.72;;;22.20;67.20;;;;;;5029967;28;20037;-78
2021/07/22 00:11:51;;;;;;;67.65;64.07;;;22.10;67.30;;;;;;5028889;28;20616;-78
2021/07/22 00:14:17;;;;;;;71.07;66.78;;;22.00;67.40;;;;;;5029776;28;20029;-77
2021/07/22 00:16:43;;;;;;;69.90;66.15;;;22.00;67.60;;;;;;5029946;28;20048;-77
2021/07/22 00:19:08;;;;;;;64.53;60.25;;;22.00;67.80;;;;;;5029999;28;20143;-77
2021/07/22 00:21:34;;;;;;;62.17;58.78;;;21.90;67.80;;;;;;5028672;28;20032;-76
2021/07/22 00:24:00;;;;;;;58.45;55.35;;;21.90;67.90;;;;;;5028616;28;20049;-75
2021/07/22 00:26:25;;;;;;;60.53;56.92;;;21.80;68.00;;;;;;5044951;28;20128;-76
2021/07/22 00:28:51;;;;;;;62.63;59.13;;;21.80;68.10;;;;;;5028261;28;20480;-77
2021/07/22 00:31:17;;;;;;;60.42;57.15;;;21.80;68.20;;;;;;5028028;28;20029;-77
2021/07/22 00:33:42;;;;;;;63.42;59.92;;;21.70;68.20;;;;;;5061812;28;20406;-77
2021/07/22 00:36:09;;;;;;;65.10;61.42;;;21.70;68.40;;;;;;5028234;28;20029;-75
2021/07/22 00:38:35;;;;;;;61.05;57.53;;;21.60;68.60;;;;;;5044701;28;20021;-76
2021/07/22 00:41:01;;;;;;;70.72;66.93;;;21.60;68.70;;;;;;5028276;28;20032;-77
2021/07/22 00:43:27;;;;;;;59.53;56.47;;;21.60;68.90;;;;;;5028095;28;20030;-76
2021/07/22 00:45:53;;;;;;;76.85;72.78;;;21.50;69.00;;;;;;5044708;28;20022;-76
2021/07/22 00:48:18;;;;;;;71.68;67.32;;;21.50;69.20;;;;;;5029321;28;20037;-78
2021/07/22 00:50:44;;;;;;;64.40;60.97;;;21.50;69.30;;;;;;5061267;28;20399;-75
2021/07/22 00:53:09;;;;;;;88.90;83.82;;;21.50;69.40;;;;;;5044512;28;20052;-78
2021/07/22 00:55:35;;;;;;;63.72;60.40;;;21.40;69.50;;;;;;5029539;28;20033;-76
2021/07/22 00:58:01;;;;;;;60.78;57.33;;;21.40;69.60;;;;;;5029141;28;20080;-76
2021/07/22 01:00:27;;;;;;;62.17;58.78;;;21.40;69.70;;;;;;5044355;28;20026;-77
2021/07/22 01:02:52;;;;;;;65.82;62.35;;;21.30;69.80;;;;;;5028933;28;20036;-77
2021/07/22 01:05:18;;;;;;;65.82;61.83;;;21.30;69.90;;;;;;5027833;28;20068;-77
2021/07/22 01:07:44;;;;;;;60.78;57.63;;;21.20;70.00;;;;;;5060809;28;20423;-76
2021/07/22 01:10:10;;;;;;;72.10;68.18;;;21.20;70.10;;;;;;5028903;28;20115;-76
2021/07/22 01:12:36;;;;;;;64.60;61.10;;;21.20;70.70;;;;;;5060715;28;20080;-77
2021/07/22 01:15:02;;;;;;;64.47;61.05;;;21.10;70.20;;;;;;5028685;28;20037;-76
2021/07/22 01:17:37;;;;;;;66.43;62.88;;;21.10;70.40;;;;;;5028527;28;20037;-77
2021/07/22 01:20:07;;;;;;;61.45;58.20;;;21.10;70.60;;;;;;5060706;28;20527;-78
2021/07/22 01:22:33;;;;;;;59.55;56.35;;;21.10;70.60;;;;;;5028758;28;20029;-77
2021/07/22 01:24:58;;;;;;;58.03;54.65;;;21.00;71.20;;;;;;5043996;28;20079;-75
2021/07/22 01:27:24;;;;;;;54.30;51.25;;;21.00;70.80;;;;;;5028588;28;20029;-77
2021/07/22 01:29:51;;;;;;;55.85;52.70;;;21.00;70.90;;;;;;5028412;28;20032;-76
2021/07/22 01:32:16;;;;;;;58.50;55.40;;;20.90;71.10;;;;;;5043924;28;20396;-77
2021/07/22 01:34:42;;;;;;;55.45;52.15;;;20.90;71.30;;;;;;5027169;28;20038;-76
2021/07/22 01:37:08;;;;;;;53.40;50.35;;;20.80;71.30;;;;;;5027198;28;20054;-77
2021/07/22 01:39:33;;;;;;;55.05;52.20;;;20.80;71.50;;;;;;5027031;28;20434;-77
2021/07/22 01:41:59;;;;;;;56.95;53.80;;;20.70;71.50;;;;;;5028253;28;20397;-77
2021/07/22 01:44:25;;;;;;;64.35;60.72;;;20.70;71.60;;;;;;5060400;28;20034;-77
2021/07/22 01:46:50;;;;;;;53.53;50.63;;;20.70;72.30;;;;;;5026951;28;20059;-78
2021/07/22 01:49:16;;;;;;;57.08;53.92;;;20.60;71.70;;;;;;5027033;28;20390;-76
2021/07/22 01:51:41;;;;;;;64.55;60.85;;;20.60;71.80;;;;;;5060185;28;20399;-77
2021/07/22 01:54:07;;;;;;;53.85;50.65;;;20.60;71.90;;;;;;5026827;28;20073;-76
2021/07/22 01:56:33;;;;;;;56.20;53.33;;;20.60;72.00;;;;;;5026866;28;20060;-77
2021/07/22 01:58:58;;;;;;;60.15;57.00;;;20.50;72.20;;;;;;5028126;28;20033;-76
2021/07/22 02:01:24;;;;;;;52.70;49.80;;;20.50;72.20;;;;;;5028011;28;20560;-77
2021/07/22 02:03:50;;;;;;;56.10;53.20;;;20.50;72.30;;;;;;5027999;28;20412;-76
2021/07/22 02:06:15;;;;;;;61.20;58.05;;;20.40;72.30;;;;;;5043273;28;20388;-76
2021/07/22 02:08:41;;;;;;;75.05;71.13;;;20.40;72.40;;;;;;5027885;28;20049;-74
2021/07/22 02:11:07;;;;;;;93.65;88.78;;;20.40;72.60;;;;;;5027798;28;20463;-76
2021/07/22 02:13:32;;;;;;;96.60;90.95;;;20.30;72.70;;;;;;5026598;28;20030;-76
2021/07/22 02:15:58;;;;;;;89.30;84.60;;;20.30;72.90;;;;;;5027218;28;20400;-78
2021/07/22 02:18:24;;;;;;;74.07;70.07;;;20.20;73.00;;;;;;5042844;28;20062;-77
2021/07/22 02:20:49;;;;;;;70.82;67.03;;;20.20;73.30;;;;;;5059651;28;20113;-77
2021/07/22 02:23:15;;;;;;;70.05;66.22;;;20.20;73.40;;;;;;5027703;28;20022;-76
2021/07/22 02:25:41;;;;;;;70.63;66.70;;;20.20;73.50;;;;;;5059624;28;20061;-76
2021/07/22 02:28:07;;;;;;;76.43;72.40;;;20.10;73.50;;;;;;5027504;28;20029;-77
2021/07/22 02:30:33;;;;;;;68.68;65.10;;;20.10;73.60;;;;;;5026218;28;20399;-78
2021/07/22 02:32:59;;;;;;;68.95;65.45;;;20.10;73.60;;;;;;5027422;28;20610;-75
2021/07/22 02:35:24;;;;;;;67.03;62.95;;;20.10;73.60;;;;;;5027507;28;20052;-78
2021/07/22 02:37:50;;;;;;;68.85;64.90;;;20.10;73.60;;;;;;5026303;28;20108;-76
2021/07/22 02:40:16;;;;;;;69.88;66.10;;;20.00;73.70;;;;;;5027451;28;20033;-77
2021/07/22 02:42:42;;;;;;;74.35;70.55;;;20.00;73.80;;;;;;5027564;28;20087;-77
2021/07/22 02:45:08;;;;;;;72.28;68.55;;;19.90;73.90;;;;;;5026308;28;20031;-77
2021/07/22 02:47:34;;;;;;;69.93;66.18;;;19.90;74.10;;;;;;5042602;28;20033;-76
2021/07/22 02:49:59;;;;;;;71.93;68.20;;;19.80;74.20;;;;;;5059318;28;20092;-76
2021/07/22 02:52:25;;;;;;;67.28;63.47;;;19.80;74.20;;;;;;5059493;28;20033;-75
2021/07/22 02:54:51;;;;;;;68.25;64.55;;;19.80;74.30;;;;;;5026155;28;20036;-77
2021/07/22 02:57:16;;;;;;;64.60;61.13;;;19.80;74.50;;;;;;5027321;28;20034;-76
2021/07/22 02:59:42;;;;;;;72.65;68.85;;;19.70;74.60;;;;;;5027303;28;20021;-76
2021/07/22 03:02:08;;;;;;;78.75;74.43;;;19.70;74.70;;;;;;5026049;28;20045;-77
2021/07/22 03:04:33;;;;;;;65.78;62.33;;;19.60;74.60;;;;;;5026142;28;20036;-76
2021/07/22 03:06:59;;;;;;;71.80;67.90;;;19.60;75.20;;;;;;5027318;28;20057;-76
2021/07/22 03:09:25;;;;;;;72.38;68.68;;;19.60;74.80;;;;;;5025855;28;20040;-77
2021/07/22 03:11:50;;;;;;;76.53;72.45;;;19.60;74.80;;;;;;5059339;28;20033;-75
2021/07/22 03:14:16;;;;;;;78.78;74.60;;;19.60;74.80;;;;;;5027100;28;20084;-78
2021/07/22 03:16:42;;;;;;;69.57;66.07;;;19.50;74.70;;;;;;5042393;28;20116;-76
2021/07/22 03:19:08;;;;;;;72.43;68.78;;;19.50;74.80;;;;;;5025936;28;20130;-77
2021/07/22 03:21:33;;;;;;;63.28;59.85;;;19.50;74.90;;;;;;5025914;28;20065;-75
2021/07/22 03:24:00;;;;;;;72.90;69.10;;;19.40;75.00;;;;;;5059067;28;20032;-78
2021/07/22 03:26:25;;;;;;;72.60;68.53;;;19.40;75.10;;;;;;5026624;28;20084;-76
2021/07/22 03:28:51;;;;;;;67.65;64.15;;;19.40;75.20;;;;;;5062709;28;20480;-77
2021/07/22 03:31:17;;;;;;;62.15;58.92;;;19.30;75.30;;;;;;5029321;28;20021;-78
2021/07/22 03:33:42;;;;;;;73.00;68.97;;;19.30;75.30;;;;;;5029579;28;20082;-77
2021/07/22 03:36:08;;;;;;;57.78;54.67;;;19.30;75.40;;;;;;5046073;28;20045;-75
2021/07/22 03:38:34;;;;;;;65.40;62.05;;;19.30;75.50;;;;;;5029381;28;20075;-75
2021/07/22 03:40:59;;;;;;;75.25;71.45;;;19.20;75.60;;;;;;5029360;28;20037;-78
2021/07/22 03:43:25;;;;;;;69.22;65.53;;;19.20;75.70;;;;;;5030816;28;20076;-77
2021/07/22 03:46:00;;;;;;;69.05;65.53;;;19.20;75.70;;;;;;5030551;28;20018;-76
2021/07/22 03:48:26;;;;;;;70.57;66.97;;;19.20;75.80;;;;;;5030481;28;20190;-78
2021/07/22 03:50:52;;;;;;;68.35;64.88;;;19.10;75.70;;;;;;5030435;28;20101;-76
2021/07/22 03:53:17;;;;;;;76.03;72.18;;;19.10;75.80;;;;;;5030410;28;20540;-77
2021/07/22 03:55:43;;;;;;;67.85;64.22;;;19.10;75.70;;;;;;5030288;28;20515;-75
2021/07/22 03:58:09;;;;;;;1999.90;999.90;;;19.10;75.70;;;;;;5062105;28;20360;-76
2021/07/22 04:00:35;;;;;;;1999.90;999.90;;;19.10;75.80;;;;;;5028905;28;20034;-76
2021/07/22 04:03:02;;;;;;;1999.90;999.90;;;19.10;75.90;;;;;;5029065;28;20032;-77
2021/07/22 04:05:28;;;;;;;1999.90;999.90;;;19.00;75.90;;;;;;5030208;28;20025;-78
2021/07/22 04:07:57;;;;;;;1999.90;999.90;;;19.00;76.10;;;;;;5028836;28;20033;-76
2021/07/22 04:10:24;;;;;;;1999.90;999.90;;;18.90;76.20;;;;;;5045334;28;20395;-76
2021/07/22 04:13:00;;;;;;;1999.90;999.90;;;18.90;76.30;;;;;;5028881;28;20037;-77
2021/07/22 04:15:27;;;;;;;1999.90;999.90;;;19.00;76.50;;;;;;5030119;28;20026;-77
2021/07/22 04:17:54;;;;;;;1999.90;999.90;;;19.00;76.30;;;;;;5029914;28;20068;-77
2021/07/22 04:20:22;;;;;;;1999.90;999.90;;;19.00;76.40;;;;;;5029970;28;20056;-77
2021/07/22 04:22:48;;;;;;;1999.90;999.90;;;19.00;76.30;;;;;;5029846;28;20464;-77
2021/07/22 04:25:14;;;;;;;1999.90;999.90;;;19.00;76.30;;;;;;5045303;28;20399;-78
2021/07/22 04:27:40;;;;;;;1999.90;999.90;;;18.90;76.20;;;;;;5044976;28;20408;-77
2021/07/22 04:30:07;;;;;;;1999.90;999.90;;;18.90;76.20;;;;;;5028652;28;20031;-76
2021/07/22 04:32:33;;;;;;;1999.90;999.90;;;18.90;76.30;;;;;;5061267;28;20049;-78
2021/07/22 04:34:58;;;;;;;1999.90;999.90;;;18.90;76.40;;;;;;5061316;28;20092;-76
2021/07/22 04:37:24;;;;;;;1999.90;999.90;;;18.90;76.40;;;;;;5061350;28;20120;-75
2021/07/22 04:39:50;;;;;;;1999.90;999.90;;;19.00;76.30;;;;;;5060572;28;20069;-76
2021/07/22 04:42:15;;;;;;;1999.90;999.90;;;19.00;76.40;;;;;;5028094;28;20025;-76
2021/07/22 04:44:41;;;;;;;1999.90;999.90;;;19.00;76.30;;;;;;5029968;28;20556;-78
2021/07/22 04:47:06;;;;;;;1999.90;999.90;;;19.00;76.30;;;;;;5029392;28;20052;-77
2021/07/22 04:49:32;;;;;;;1999.90;999.90;;;19.10;76.40;;;;;;5029262;28;20098;-76
2021/07/22 04:51:58;;;;;;;1999.90;999.90;;;19.10;76.30;;;;;;5029283;28;20107;-76
2021/07/22 04:54:24;;;;;;;1999.90;999.90;;;19.20;76.30;;;;;;5029193;28;20044;-76
2021/07/22 04:56:50;;;;;;;1999.90;999.90;;;19.20;76.20;;;;;;5061237;28;20029;-78
2021/07/22 04:59:16;;;;;;;1999.90;999.90;;;19.30;76.20;;;;;;5027784;28;20103;-76
2021/07/22 05:01:41;;;;;;;1999.90;999.90;;;19.30;76.10;;;;;;5044447;28;20029;-78
2021/07/22 05:04:07;;;;;;;1999.90;999.90;;;19.30;76.20;;;;;;5028953;28;20026;-76
2021/07/22 05:06:34;;;;;;;1999.90;999.90;;;19.40;76.20;;;;;;5028947;28;20041;-77
2021/07/22 05:09:00;;;;;;;1999.90;999.90;;;19.40;76.30;;;;;;5028886;28;20526;-76
2021/07/22 05:11:26;;;;;;;1999.90;999.90;;;19.50;76.20;;;;;;5028906;28;20026;-77
2021/07/22 05:13:52;;;;;;;1999.90;999.90;;;19.60;76.10;;;;;;5060723;28;20309;-76
2021/07/22 05:16:19;;;;;;;1999.90;999.90;;;19.70;76.00;;;;;;5028595;28;20168;-78
2021/07/22 05:18:44;;;;;;;1999.90;999.90;;;19.80;75.90;;;;;;5060515;28;20025;-75
2021/07/22 05:21:10;;;;;;;1999.90;999.90;;;19.80;75.70;;;;;;5028569;28;20384;-77
2021/07/22 05:23:36;;;;;;;1999.90;999.90;;;19.90;75.80;;;;;;5028526;28;20150;-76
2021/07/22 05:26:05;;;;;;;1999.90;999.90;;;20.00;75.90;;;;;;5028092;28;20033;-77
2021/07/22 05:28:31;;;;;;;1999.90;999.90;;;20.00;76.00;;;;;;5059979;28;20025;-78
2021/07/22 05:30:56;;;;;;;1999.90;999.90;;;20.00;75.90;;;;;;5028488;28;20268;-76
2021/07/22 05:33:22;;;;;;;1999.90;999.90;;;20.00;76.00;;;;;;5028216;28;20057;-76
2021/07/22 05:35:48;;;;;;;1999.90;999.90;;;20.00;76.20;;;;;;5027161;28;20088;-77
2021/07/22 05:38:13;;;;;;;1999.90;999.90;;;20.00;76.40;;;;;;5028291;28;20045;-76
2021/07/22 05:40:39;;;;;;;1999.90;999.90;;;20.10;76.60;;;;;;5027098;28;20108;-77
2021/07/22 05:43:05;;;;;;;1999.90;999.90;;;20.20;76.50;;;;;;5027155;28;20071;-76
2021/07/22 05:45:30;;;;;;;1999.90;999.90;;;20.30;76.50;;;;;;5027027;28;20037;-77
2021/07/22 05:47:56;;;;;;;1999.90;999.90;;;20.30;76.50;;;;;;5026987;28;20061;-77
2021/07/22 05:50:22;;;;;;;97.07;89.95;;;20.40;76.60;;;;;;5042401;28;20029;-75
2021/07/22 05:52:47;;;;;;;1525.38;773.67;;;20.50;76.80;;;;;;5043424;28;20087;-77
2021/07/22 05:55:13;;;;;;;67.75;62.35;;;20.40;76.80;;;;;;5027788;28;20112;-76
2021/07/22 05:57:38;;;;;;;87.20;81.03;;;20.50;77.00;;;;;;5028263;28;20033;-77
2021/07/22 06:00:05;;;;;;;70.22;64.65;;;20.60;77.10;;;;;;5027928;28;20017;-77
2021/07/22 06:02:31;;;;;;;118.10;108.00;;;20.60;77.30;;;;;;5027889;28;20444;-76
2021/07/22 06:04:56;;;;;;;59.60;54.92;;;20.80;77.30;;;;;;5026764;28;20060;-77
2021/07/22 06:07:22;;;;;;;67.40;62.17;;;20.90;77.80;;;;;;5027938;28;20064;-76
2021/07/22 06:09:48;;;;;;;61.05;56.28;;;21.00;77.30;;;;;;5026556;28;20105;-75
2021/07/22 06:12:14;;;;;;;50.20;46.03;;;21.10;77.30;;;;;;5027707;28;20057;-76
2021/07/22 06:14:39;;;;;;;51.97;47.03;;;21.30;77.60;;;;;;5026359;28;20060;-76
2021/07/22 06:17:05;;;;;;;56.72;52.83;;;21.70;77.70;;;;;;5028031;28;20037;-77
2021/07/22 06:19:31;;;;;;;116.40;109.22;;;22.70;77.30;;;;;;5042571;28;20040;-77
2021/07/22 06:21:57;;;;;;;103.47;97.10;;;23.90;75.30;;;;;;5059156;28;20086;-78
2021/07/22 06:24:22;;;;;;;112.00;105.78;;;25.00;73.20;;;;;;5025878;28;20116;-76
2021/07/22 06:26:48;;;;;;;77.13;72.70;;;26.00;71.50;;;;;;5027249;28;20026;-76
2021/07/22 06:29:14;;;;;;;84.35;79.03;;;26.50;69.30;;;;;;5027225;28;20373;-77
2021/07/22 06:31:39;;;;;;;68.32;63.28;;;26.40;68.10;;;;;;5042267;28;20065;-76
2021/07/22 06:34:05;;;;;;;53.78;49.53;;;26.20;68.60;;;;;;5027329;28;20108;-76
2021/07/22 06:36:31;;;;;;;36.83;33.72;;;26.70;69.00;;;;;;5026090;28;20037;-78
2021/07/22 06:38:56;;;;;;;36.47;34.03;;;27.80;67.90;;;;;;5027135;28;20057;-77
2021/07/22 06:41:22;;;;;;;41.88;38.55;;;28.80;66.40;;;;;;5058977;28;20030;-77
2021/07/22 06:43:48;;;;;;;143.80;135.68;;;29.70;64.80;;;;;;5026950;28;20026;-77
2021/07/22 06:46:14;;;;;;;52.97;49.22;;;30.40;63.40;;;;;;5027090;28;20489;-77
2021/07/22 06:48:41;;;;;;;41.92;38.78;;;31.00;61.90;;;;;;5026788;28;20143;-78
2021/07/22 06:51:07;;;;;;;43.15;39.55;;;31.40;60.60;;;;;;5026817;28;20033;-78
2021/07/22 06:53:33;;;;;;;64.90;60.42;;;31.50;59.70;;;;;;5025624;28;20041;-76
2021/07/22 06:55:59;;;;;;;63.88;59.95;;;31.30;58.90;;;;;;5027002;28;20038;-77
2021/07/22 06:58:25;;;;;;;58.95;54.88;;;30.90;58.70;;;;;;5058702;28;20034;-75
2021/07/22 07:00:51;;;;;;;64.25;60.63;;;30.70;58.60;;;;;;5027159;28;20100;-77
2021/07/22 07:03:18;;;;;;;57.33;54.03;;;30.80;58.40;;;;;;5029750;28;20801;-76
2021/07/22 07:05:44;;;;;;;58.05;54.83;;;30.90;57.70;;;;;;5030969;28;20041;-77
2021/07/22 07:08:10;;;;;;;94.35;88.90;;;30.30;57.30;;;;;;5030742;28;20067;-76
2021/07/22 07:10:36;;;;;;;47.78;44.83;;;29.50;57.70;;;;;;5029615;28;20495;-77
2021/07/22 07:13:02;;;;;;;43.85;41.15;;;28.80;58.50;;;;;;5062906;28;20030;-75
2021/07/22 07:15:27;;;;;;;41.55;38.58;;;28.30;59.30;;;;;;5046006;28;20434;-77
2021/07/22 07:17:54;;;;;;;46.97;43.65;;;28.00;59.70;;;;;;5029017;28;20082;-77
2021/07/22 07:20:19;;;;;;;32.10;30.00;;;28.20;60.50;;;;;;5030229;28;20068;-76
2021/07/22 07:22:45;;;;;;;29.33;26.95;;;29.00;60.60;;;;;;5030518;28;20021;-76
2021/07/22 07:25:11;;;;;;;28.88;26.85;;;30.40;59.80;;;;;;5062536;28;20089;-76
2021/07/22 07:27:38;;;;;;;37.75;33.97;;;31.80;58.40;;;;;;5031515;28;20029;-76
2021/07/22 07:30:05;;;;;;;37.80;35.60;;;32.90;56.90;;;;;;5030828;28;20356;-77
2021/07/22 07:32:30;;;;;;;39.35;37.03;;;34.00;55.50;;;;;;5030057;28;20064;-76
2021/07/22 07:34:56;;;;;;;37.50;34.92;;;34.70;54.30;;;;;;5030212;28;20034;-77
2021/07/22 07:37:22;;;;;;;40.72;37.90;;;35.50;53.20;;;;;;5030092;28;20049;-77
2021/07/22 07:39:47;;;;;;;41.78;39.35;;;35.90;52.20;;;;;;5030162;28;20139;-77
2021/07/22 07:42:13;;;;;;;64.85;60.92;;;36.10;51.30;;;;;;5030120;28;20039;-76
2021/07/22 07:44:39;;;;;;;84.78;79.97;;;36.20;50.70;;;;;;5030358;28;20030;-76
2021/07/22 07:47:04;;;;;;;91.55;86.47;;;36.10;50.40;;;;;;5029995;28;20464;-77
2021/07/22 07:49:30;;;;;;;116.22;110.22;;;36.30;50.00;;;;;;5029747;28;20128;-76
2021/07/22 07:51:56;;;;;;;147.13;139.82;;;36.50;49.60;;;;;;5028661;28;20396;-77
2021/07/22 07:54:22;;;;;;;146.38;138.70;;;36.50;49.00;;;;;;5029572;28;20029;-78
2021/07/22 07:56:51;;;;;;;199.88;189.60;;;36.40;48.70;;;;;;5029587;28;20099;-77
2021/07/22 07:59:17;;;;;;;144.05;136.38;;;36.30;48.60;;;;;;5029605;28;20057;-77
2021/07/22 08:01:43;;;;;;;190.82;180.75;;;36.20;48.70;;;;;;5044689;28;20088;-76
2021/07/22 08:04:09;;;;;;;170.00;161.38;;;36.10;48.70;;;;;;5028445;28;20026;-78
2021/07/22 08:06:34;;;;;;;192.60;181.60;;;36.20;48.70;;;;;;5029860;28;20140;-76
2021/07/22 08:09:00;;;;;;;333.85;308.00;;;36.50;48.60;;;;;;5028681;28;20423;-77
2021/07/22 08:11:26;;;;;;;243.40;231.07;;;36.80;48.40;;;;;;5029514;28;20388;-78
2021/07/22 08:13:52;;;;;;;267.33;253.20;;;37.00;47.90;;;;;;5028455;28;20041;-78
2021/07/22 08:16:18;;;;;;;346.67;324.83;;;37.20;47.90;;;;;;5029493;28;20037;-77
2021/07/22 08:18:49;;;;;;;438.20;413.17;;;37.60;47.90;;;;;;5029351;28;20384;-77
2021/07/22 08:21:15;;;;;;;253.27;239.73;;;37.90;47.50;;;;;;5029309;28;20024;-76
2021/07/22 08:23:41;;;;;;;309.48;293.13;;;38.10;47.40;;;;;;5044332;28;20029;-77
2021/07/22 08:26:07;;;;;;;270.70;256.80;;;38.20;47.00;;;;;;5044424;28;20049;-77
2021/07/22 08:28:33;;;;;;;350.02;331.20;;;38.30;47.10;;;;;;5028998;28;20029;-77
2021/07/22 08:30:59;;;;;;;320.02;302.60;;;38.40;46.80;;;;;;5028981;28;20033;-78
2021/07/22 08:33:25;;;;;;;1057.80;641.92;;;38.30;46.60;;;;;;5028928;28;20157;-76
2021/07/22 08:35:51;;;;;;;286.17;271.20;;;38.20;46.40;;;;;;5029312;28;20116;-78
2021/07/22 08:38:16;;;;;;;332.52;314.15;;;38.00;46.90;;;;;;5029170;28;20059;-77
2021/07/22 08:40:42;;;;;;;362.88;343.30;;;37.80;46.40;;;;;;5027943;28;20079;-78
2021/07/22 08:43:08;;;;;;;334.17;315.65;;;37.60;46.40;;;;;;5027608;28;20033;-79
2021/07/22 08:45:34;;;;;;;391.40;367.80;;;37.10;46.40;;;;;;5029069;28;20029;-77
2021/07/22 08:48:00;;;;;;;381.40;355.90;;;36.70;46.30;;;;;;5028657;28;20038;-77
2021/07/22 08:50:26;;;;;;;340.60;322.73;;;36.50;46.90;;;;;;5028457;28;20042;-77
2021/07/22 08:52:52;;;;;;;368.00;346.13;;;36.80;46.60;;;;;;5060418;28;20480;-78
2021/07/22 08:55:19;;;;;;;273.27;259.38;;;37.20;46.60;;;;;;5060583;28;20056;-77
2021/07/22 08:57:45;;;;;;;380.08;356.13;;;37.70;46.40;;;;;;5028680;28;20076;-77
2021/07/22 09:00:12;;;;;;;359.92;339.52;;;37.90;46.30;;;;;;5028490;28;20018;-77
2021/07/22 09:02:38;;;;;;;347.25;327.52;;;37.90;45.70;;;;;;5028155;28;20097;-75
2021/07/22 09:05:05;;;;;;;254.55;241.20;;;37.70;45.50;;;;;;5027231;28;20033;-76
2021/07/22 09:07:31;;;;;;;302.02;286.52;;;37.50;45.50;;;;;;5028357;28;20034;-74
2021/07/22 09:10:08;;;;;;;387.35;356.10;;;37.30;45.50;;;;;;5028925;28;20079;-77
2021/07/22 09:12:51;;;;;;;339.67;321.15;;;37.20;45.40;;;;;;5060101;28;20040;-77
2021/07/22 09:15:36;;;;;;;624.67;469.88;;;37.40;45.60;;;;;;5060588;28;20044;-78
2021/07/22 09:18:24;;;;;;;309.48;290.55;;;37.30;45.20;;;;;;5029837;28;20403;-76
2021/07/22 09:20:52;;;;;;;320.83;304.17;;;37.20;45.20;;;;;;5030357;28;20021;-77
2021/07/22 09:23:26;;;;;;;330.23;313.20;;;37.00;45.30;;;;;;5044974;28;20025;-76
2021/07/22 09:25:55;;;;;;;292.35;276.45;;;36.80;45.70;;;;;;5029023;28;20045;-73
2021/07/22 09:28:23;;;;;;;274.70;260.70;;;36.70;45.60;;;;;;5028617;28;20025;-73
2021/07/22 09:31:03;;;;;;;294.55;279.02;;;36.70;45.70;;;;;;5028557;28;20129;-73
2021/07/22 09:33:42;;;;;;;255.05;241.95;;;36.80;46.00;;;;;;5028824;28;20495;-74
2021/07/22 09:36:20;;;;;;;280.48;266.05;;;36.80;45.70;;;;;;5028906;28;20051;-74
2021/07/22 09:38:46;;;;;;;184.23;174.75;;;36.90;45.90;;;;;;5028700;28;20491;-74
2021/07/22 09:41:22;;;;;;;212.45;201.60;;;37.40;46.10;;;;;;5026106;28;20025;-75
2021/07/22 09:43:48;;;;;;;136.80;129.57;;;38.10;45.50;;;;;;5028689;28;20468;-74
2021/07/22 09:46:15;;;;;;;104.18;97.97;;;38.60;45.10;;;;;;5028473;28;20037;-74
2021/07/22 09:49:09;;;;;;;116.28;109.25;;;38.70;44.70;;;;;;5028344;28;20039;-73
2021/07/22 09:51:37;;;;;;;79.63;75.28;;;38.80;44.40;;;;;;5028956;28;20018;-74
2021/07/22 09:54:10;;;;;;;123.18;116.53;;;38.80;44.50;;;;;;5028848;28;20626;-74
2021/07/22 09:56:42;;;;;;;131.27;124.38;;;38.90;44.40;;;;;;5028297;28;20048;-73
2021/07/22 09:59:09;;;;;;;179.38;170.00;;;38.60;44.30;;;;;;5028093;28;20407;-74
2021/07/22 10:01:48;;;;;;;236.77;224.18;;;38.20;44.40;;;;;;5028293;28;20104;-74
2021/07/22 10:04:17;;;;;;;318.60;301.95;;;37.90;44.50;;;;;;5028447;28;20025;-74
2021/07/22 10:06:47;;;;;;;;;;;37.50;44.40;;;;;;5028374;28;20420;-75
2021/07/22 10:09:18;;;;;;;258.77;245.60;;;37.10;44.90;;;;;;5027957;28;19905;-75
2021/07/22 10:11:45;;;;;;;319.27;301.63;;;36.70;45.00;;;;;;5027822;28;20328;-75
2021/07/22 10:14:17;;;;;;;254.77;241.90;;;36.50;45.10;;;;;;5027588;28;20622;-74
2021/07/22 10:16:46;;;;;;;336.70;317.40;;;36.30;45.40;;;;;;5027957;28;20033;-75
2021/07/22 10:19:12;;;;;;;278.27;262.23;;;36.30;45.40;;;;;;5027996;28;20047;-75
2021/07/22 10:21:38;;;;;;;255.30;241.82;;;36.10;45.30;;;;;;5027759;28;20397;-75
2021/07/22 10:24:07;;;;;;;264.65;250.55;;;35.90;45.50;;;;;;5028033;28;20104;-74
2021/07/22 10:26:39;;;;;;;;;;;35.70;45.60;;;;;;5028239;28;20047;-75
2021/07/22 10:29:05;;;;;;;203.73;192.88;;;35.80;45.90;;;;;;5027573;28;19932;-76
2021/07/22 10:31:34;;;;;;;302.48;280.90;;;36.00;45.70;;;;;;5027835;28;20387;-76
2021/07/22 10:34:00;;;;;;;242.35;229.55;;;36.10;45.60;;;;;;5028014;28;20029;-75
2021/07/22 10:36:27;;;;;;;335.73;312.08;;;36.30;45.50;;;;;;5025818;28;20038;-75
2021/07/22 10:38:53;;;;;;;322.08;300.63;;;36.60;45.40;;;;;;5027695;28;20037;-74
2021/07/22 10:41:37;;;;;;;231.88;219.65;;;36.40;44.70;;;;;;5027822;28;20014;-74
2021/07/22 10:44:32;;;;;;;210.10;198.98;;;36.00;44.80;;;;;;5027343;28;20017;-74
2021/07/22 10:47:00;;;;;;;147.65;139.65;;;35.70;45.20;;;;;;5026705;28;20017;-74
2021/07/22 10:49:37;;;;;;;253.05;217.93;;;35.40;45.70;;;;;;5026612;28;20350;-75
2021/07/22 10:52:03;;;;;;;162.75;154.48;;;35.50;46.10;;;;;;5027354;28;20079;-75
2021/07/22 10:54:40;;;;;;;209.82;198.68;;;35.80;46.60;;;;;;5027401;28;20456;-74
2021/07/22 10:57:06;;;;;;;229.27;217.30;;;36.50;46.60;;;;;;5026959;28;20018;-75
2021/07/22 10:59:58;;;;;;;171.55;162.60;;;37.20;46.40;;;;;;5027392;28;20025;-75
2021/07/22 11:02:45;;;;;;;103.72;97.75;;;38.00;46.10;;;;;;5026828;28;20040;-74
2021/07/22 11:05:21;;;;;;;175.18;159.23;;;39.00;45.90;;;;;;5025216;28;20022;-76
2021/07/22 11:08:25;;;;;;;65.75;62.13;;;39.70;45.40;;;;;;5027139;28;20022;-76
2021/07/22 11:11:04;;;;;;;136.25;125.97;;;40.30;44.60;;;;;;5026835;28;20416;-75
2021/07/22 11:13:44;;;;;;;109.60;103.28;;;40.70;44.20;;;;;;5027073;28;20036;-75
2021/07/22 11:16:29;;;;;;;61.40;57.70;;;40.90;43.70;;;;;;5027363;28;20113;-75
2021/07/22 11:19:02;;;;;;;186.85;170.15;;;41.20;43.50;;;;;;5027213;28;20026;-75
2021/07/22 11:21:33;;;;;;;39.45;36.83;;;41.60;43.20;;;;;;5026923;28;20172;-78
2021/07/22 11:24:16;;;;;;;36.40;33.78;;;42.10;43.10;;;;;;5023639;28;20173;-71
2021/07/22 11:26:43;;;;;;;36.08;33.42;;;42.60;42.70;;;;;;5025034;28;20160;-74
2021/07/22 11:29:10;;;;;;;32.67;30.40;;;43.20;42.40;;;;;;5026134;28;20049;-75
2021/07/22 11:31:44;;;;;;;32.15;30.10;;;43.30;42.00;;;;;;5024160;28;20018;-73
2021/07/22 11:34:10;;;;;;;119.25;110.38;;;43.00;41.60;;;;;;5026757;28;20078;-76
2021/07/22 11:36:35;;;;;;;30.77;28.63;;;42.80;41.80;;;;;;5026605;28;20033;-72
2021/07/22 11:39:03;;;;;;;31.50;29.38;;;42.40;41.40;;;;;;5025806;28;20032;-72
2021/07/22 11:41:29;;;;;;;31.70;29.10;;;42.20;41.70;;;;;;5025851;28;20333;-74
2021/07/22 11:43:56;;;;;;;33.20;30.85;;;42.10;41.50;;;;;;5023819;28;20039;-76
2021/07/22 11:46:40;;;;;;;30.15;28.15;;;41.60;41.30;;;;;;5026656;28;20104;-75
2021/07/22 11:49:17;;;;;;;40.20;37.88;;;40.80;41.20;;;;;;5028267;28;20048;-75
2021/07/22 11:51:47;;;;;;;37.42;35.13;;;40.20;41.70;;;;;;5028867;28;20079;-74
2021/07/22 11:54:17;;;;;;;113.57;105.22;;;40.30;42.00;;;;;;5028731;28;20380;-74
2021/07/22 11:56:45;;;;;;;77.55;72.65;;;40.50;41.90;;;;;;5030073;28;20017;-74
2021/07/22 11:59:11;;;;;;;34.83;32.70;;;40.70;41.80;;;;;;5030105;28;20117;-73
2021/07/22 12:01:51;;;;;;;37.17;35.08;;;40.80;42.00;;;;;;5030210;28;20141;-73
2021/07/22 12:04:24;;;;;;;37.08;34.53;;;41.30;42.10;;;;;;5027978;28;20016;-74
2021/07/22 12:06:51;;;;;;;46.00;43.10;;;41.80;41.30;;;;;;5030080;28;20021;-74
2021/07/22 12:09:16;;;;;;;45.53;42.70;;;41.90;40.90;;;;;;5030001;28;20029;-74
2021/07/22 12:11:43;;;;;;;38.05;36.03;;;41.70;40.60;;;;;;5029943;28;20036;-73
2021/07/22 12:14:09;;;;;;;39.05;36.70;;;41.60;40.20;;;;;;5030089;28;20092;-73
2021/07/22 12:16:35;;;;;;;36.42;34.03;;;41.60;40.10;;;;;;5030439;28;20165;-74
2021/07/22 12:19:01;;;;;;;38.00;35.47;;;41.60;40.10;;;;;;5028919;28;20036;-73
2021/07/22 12:21:29;;;;;;;35.80;33.45;;;41.60;40.00;;;;;;5029905;28;20480;-74